Time;durP1;ratioP1;P1;durP2;ratioP2;P2;SDS_P1;SDS_P2;PMS_P1;PMS_P2;Temp;Humidity;BMP_temperature;BMP_pressure;BME280_temperature;BME280_humidity;BME280_pressure;Samples;Min_cycle;Max_cycle;Signal;HPM_P1;HPM_P2
2022/01/29 00:02:50;;;;;;;;;;;6.80;57.40;;;;;;6295329;28;19912;-70
2022/01/29 00:05:53;;;;;;;;;;;6.70;57.50;;;;;;6272635;28;19916;-69
2022/01/29 00:08:56;;;;;;;;;;;6.70;57.70;;;;;;6288688;28;19908;-69
2022/01/29 00:11:56;;;;;;;;;;;6.70;57.80;;;;;;6306528;28;19915;-69
2022/01/29 00:14:57;;;;;;;;;;;6.70;57.90;;;;;;6280669;28;19912;-69
2022/01/29 00:17:58;;;;;;;;;;;6.70;57.90;;;;;;6295913;28;19966;-69
2022/01/29 00:20:59;;;;;;;;;;;6.70;57.90;;;;;;6317364;28;20409;-69
2022/01/29 00:24:00;;;;;;;;;;;6.70;57.90;;;;;;6311960;28;19920;-69
2022/01/29 00:27:07;;;;;;;;;;;6.70;57.90;;;;;;6299151;28;19908;-68
2022/01/29 00:30:10;;;;;;;;;;;6.70;58.00;;;;;;6300832;28;19912;-69
2022/01/29 00:33:12;;;;;;;;;;;6.60;58.00;;;;;;6318906;28;19977;-69
2022/01/29 00:36:12;;;;;;;;;;;6.60;57.90;;;;;;6283111;28;19908;-70
2022/01/29 00:39:13;;;;;;;;;;;6.60;58.00;;;;;;6311625;28;19970;-69
2022/01/29 00:42:14;;;;;;;;;;;6.60;58.10;;;;;;6283882;28;19911;-69
2022/01/29 00:45:14;;;;;;;;;;;6.60;58.10;;;;;;6317690;28;19908;-69
2022/01/29 00:48:15;;;;;;;;;;;6.60;57.90;;;;;;6299686;28;19955;-69
2022/01/29 00:51:16;;;;;;;;;;;6.70;57.90;;;;;;6317397;28;19908;-69
2022/01/29 00:54:17;;;;;;;;;;;6.70;57.90;;;;;;6293327;28;19938;-69
2022/01/29 00:57:17;;;;;;;;;;;6.70;57.90;;;;;;6317813;28;19912;-69
2022/01/29 01:00:18;;;;;;;;;;;6.70;57.80;;;;;;6316358;28;19916;-69
2022/01/29 01:03:19;;;;;;;;;;;6.70;57.90;;;;;;6299176;28;19908;-70
2022/01/29 01:06:20;;;;;;;;;;;6.70;57.90;;;;;;6317375;28;19912;-70
2022/01/29 01:09:20;;;;;;;;;;;6.80;57.90;;;;;;6316896;28;19912;-69
2022/01/29 01:12:21;;;;;;;;;;;6.80;57.80;;;;;;6312363;28;20320;-68
2022/01/29 01:15:22;;;;;;;;;;;6.80;57.80;;;;;;6298325;28;19914;-68
2022/01/29 01:18:23;;;;;;;;;;;6.70;57.80;;;;;;6299367;28;20383;-69
2022/01/29 01:21:23;;;;;;;;;;;6.70;58.00;;;;;;6315685;28;20003;-69
2022/01/29 01:24:24;;;;;;;;;;;6.70;58.00;;;;;;6314331;28;19919;-69
2022/01/29 01:27:25;;;;;;;;;;;6.70;58.00;;;;;;6317272;28;19908;-69
2022/01/29 01:30:26;;;;;;;;;;;6.60;58.10;;;;;;6316851;28;19912;-68
2022/01/29 01:33:27;;;;;;;;;;;6.60;58.10;;;;;;6298973;28;19984;-68
2022/01/29 01:36:27;;;;;;;;;;;6.60;58.10;;;;;;6299319;28;19908;-68
2022/01/29 01:39:32;;;;;;;;;;;6.50;58.20;;;;;;6313024;28;19912;-69
2022/01/29 01:42:33;;;;;;;;;;;6.50;58.20;;;;;;6298562;28;20011;-70
2022/01/29 01:45:33;;;;;;;;;;;6.50;58.20;;;;;;6299289;28;19908;-69
2022/01/29 01:48:34;;;;;;;;;;;6.40;58.30;;;;;;6317352;28;20475;-68
2022/01/29 01:51:35;;;;;;;;;;;6.40;58.40;;;;;;6291948;28;19908;-68
2022/01/29 01:54:40;;;;;;;;;;;6.30;58.50;;;;;;6317199;28;20222;-70
2022/01/29 01:57:41;;;;;;;;;;;6.30;58.60;;;;;;6317186;28;19915;-69
2022/01/29 02:00:41;;;;;;;;;;;6.30;58.70;;;;;;6316226;28;20038;-69
2022/01/29 02:03:44;;;;;;;;;;;6.30;58.70;;;;;;6296049;28;19923;-69
2022/01/29 02:06:46;;;;;;;;;;;6.30;58.70;;;;;;6295882;28;19983;-69
2022/01/29 02:09:47;;;;;;;;;;;6.30;58.70;;;;;;6298984;28;19907;-69
2022/01/29 02:12:49;;;;;;;;;;;6.30;59.30;;;;;;6298108;28;19959;-69
2022/01/29 02:15:49;;;;;;;;;;;6.30;58.80;;;;;;6319698;28;20268;-68
2022/01/29 02:18:50;;;;;;;;;;;6.30;58.90;;;;;;6320872;28;19908;-69
2022/01/29 02:21:51;;;;;;;;;;;6.30;58.90;;;;;;6318860;28;19920;-69
2022/01/29 02:24:52;;;;;;;;;;;6.30;58.80;;;;;;6298219;28;19916;-69
2022/01/29 02:27:53;;;;;;;;;;;6.30;58.80;;;;;;6320126;28;20368;-69
2022/01/29 02:31:03;;;;;;;;;;;6.30;58.80;;;;;;6303086;28;20321;-69
2022/01/29 02:34:04;;;;;;;;;;;6.30;58.90;;;;;;6320174;28;19908;-68
2022/01/29 02:37:05;;;;;;;;;;;6.30;58.90;;;;;;6302318;28;19912;-68
2022/01/29 02:40:06;;;;;;;;;;;6.30;58.90;;;;;;6318161;28;19970;-70
2022/01/29 02:43:14;;;;;;;;;;;6.30;58.90;;;;;;6302651;28;19915;-70
2022/01/29 02:49:23;;;;;;;;;;;6.20;59.00;;;;;;6301887;28;19995;-69
2022/01/29 02:52:24;;;;;;;;;;;6.30;58.90;;;;;;6320793;28;20299;-70
2022/01/29 02:55:25;;;;;;;;;;;6.30;58.80;;;;;;6319973;28;19907;-70
2022/01/29 02:58:25;;;;;;;;;;;6.20;58.90;;;;;;6302423;28;19916;-70
2022/01/29 03:01:26;;;;;;;;;;;6.20;59.00;;;;;;6319960;28;20551;-70
2022/01/29 03:04:27;;;;;;;;;;;6.20;59.10;;;;;;6319910;28;19908;-70
2022/01/29 03:07:28;;;;;;;;;;;6.20;59.20;;;;;;6301716;28;19939;-70
2022/01/29 03:10:28;;;;;;;;;;;6.20;59.20;;;;;;6285326;28;19916;-70
2022/01/29 03:13:29;;;;;;;;;;;6.20;59.20;;;;;;6320090;28;19908;-70
2022/01/29 03:16:30;;;;;;;;;;;6.20;59.20;;;;;;6301475;28;19911;-70
2022/01/29 03:19:31;;;;;;;;;;;6.20;59.20;;;;;;6302089;28;19912;-70
2022/01/29 03:22:31;;;;;;;;;;;6.20;59.20;;;;;;6318818;28;20014;-68
2022/01/29 03:25:32;;;;;;;;;;;6.20;59.10;;;;;;6317452;28;19931;-70
2022/01/29 03:28:33;;;;;;;;;;;6.20;59.20;;;;;;6318884;28;20338;-68
2022/01/29 03:31:34;;;;;;;;;;;6.20;59.20;;;;;;6284480;28;19922;-69
2022/01/29 03:34:35;;;;;;;;;;;6.20;59.20;;;;;;6301164;28;19943;-69
2022/01/29 03:37:36;;;;;;;;;;;6.20;59.20;;;;;;6299494;28;19908;-70
2022/01/29 03:40:36;;;;;;;;;;;6.20;59.20;;;;;;6295753;28;19923;-70
2022/01/29 03:43:44;;;;;;;;;;;6.20;59.30;;;;;;6301002;28;19968;-70
2022/01/29 03:46:45;;;;;;;;;;;6.20;59.30;;;;;;6301401;28;20334;-69
2022/01/29 03:49:45;;;;;;;;;;;6.20;59.30;;;;;;6301359;28;19912;-68
2022/01/29 03:52:46;;;;;;;;;;;6.20;59.30;;;;;;6301126;28;19908;-69
2022/01/29 03:55:47;;;;;;;;;;;6.30;59.30;;;;;;6319072;28;19908;-69
2022/01/29 03:58:48;;;;;;;;;;;6.30;59.20;;;;;;6301364;28;19908;-69
2022/01/29 04:01:49;;;;;;;;;;;6.30;59.20;;;;;;6301057;28;19912;-69
2022/01/29 04:04:50;;;;;;;;;;;6.30;59.20;;;;;;6318624;28;19912;-69
2022/01/29 04:07:50;;;;;;;;;;;6.30;59.20;;;;;;6301097;28;20248;-69
2022/01/29 04:10:52;;;;;;;;;;;6.30;59.20;;;;;;6301358;28;20011;-69
2022/01/29 04:13:52;;;;;;;;;;;6.20;59.30;;;;;;6284211;28;19908;-69
2022/01/29 04:16:53;;;;;;;;;;;6.20;59.30;;;;;;6301161;28;19908;-69
2022/01/29 04:19:54;;;;;;;;;;;6.30;59.30;;;;;;6300760;28;20379;-69
2022/01/29 04:22:54;;;;;;;;;;;6.30;59.30;;;;;;6299518;28;20296;-69
2022/01/29 04:25:55;;;;;;;;;;;6.30;59.30;;;;;;6300420;28;19923;-68
2022/01/29 04:28:56;;;;;;;;;;;6.40;59.30;;;;;;6297649;28;19947;-69
2022/01/29 04:34:57;;;;;;;;;;;6.40;59.20;;;;;;6317506;28;19919;-70
2022/01/29 04:37:58;;;;;;;;;;;6.40;59.10;;;;;;6317920;28;19965;-69
2022/01/29 04:41:04;;;;;;;;;;;6.40;59.10;;;;;;6318512;28;19916;-69
2022/01/29 04:44:05;;;;;;;;;;;6.30;59.20;;;;;;6300769;28;19918;-69
2022/01/29 04:47:05;;;;;;;;;;;6.30;59.30;;;;;;6316250;28;19908;-69
2022/01/29 04:50:06;;;;;;;;;;;6.30;59.40;;;;;;6318037;28;20388;-69
2022/01/29 04:53:07;;;;;;;;;;;6.20;59.40;;;;;;6283280;28;19912;-69
2022/01/29 04:56:08;;;;;;;;;;;6.20;59.50;;;;;;6300133;28;19915;-69
2022/01/29 04:59:08;;;;;;;;;;;6.20;59.50;;;;;;6318202;28;19969;-69
2022/01/29 05:02:09;;;;;;;;;;;6.20;59.50;;;;;;6283108;28;20015;-69
2022/01/29 05:05:10;;;;;;;;;;;6.20;59.60;;;;;;6299870;28;19916;-68
2022/01/29 05:08:14;;;;;;;;;;;6.20;59.60;;;;;;6282782;28;19912;-69
2022/01/29 05:11:16;;;;;;;;;;;6.20;59.60;;;;;;6283276;28;19919;-69
2022/01/29 05:14:28;;;;;;;;;;;6.20;59.60;;;;;;6299715;28;19955;-69
2022/01/29 05:27:28;;;;;;;;;;;6.10;59.90;;;;;;6174536;28;19909;-69
2022/01/29 05:30:28;;;;;;;;;;;6.10;60.00;;;;;;6191330;28;19909;-69
2022/01/29 05:33:29;;;;;;;;;;;6.10;59.90;;;;;;6190993;28;20390;-69
2022/01/29 05:36:30;;;;;;;;;;;6.10;60.00;;;;;;6190716;28;19914;-69
2022/01/29 05:39:31;;;;;;;;;;;6.10;60.00;;;;;;6174736;28;20283;-69
2022/01/29 05:42:32;;;;;;;;;;;6.00;60.00;;;;;;6174676;28;19937;-69
2022/01/29 05:45:33;;;;;;;;;;;6.00;60.10;;;;;;6174522;28;19921;-69
2022/01/29 05:48:34;;;;;;;;;;;6.00;60.30;;;;;;6174257;28;19921;-69
2022/01/29 05:51:34;;;;;;;;;;;5.70;60.30;;;;;;6178969;28;19914;-69
2022/01/29 05:54:35;;;;;;;;;;;5.90;60.60;;;;;;6195518;28;20061;-69
2022/01/29 05:57:36;;;;;;;;;;;5.90;60.60;;;;;;6244456;28;19999;-69
2022/01/29 06:00:37;;;;;;;;;;;5.80;60.60;;;;;;6295869;28;19912;-69
2022/01/29 06:03:37;;;;;;;;;;;5.80;60.80;;;;;;6295877;28;19908;-69
2022/01/29 06:06:38;;;;;;;;;;;5.80;60.90;;;;;;6295597;28;20501;-69
2022/01/29 06:09:39;;;;;;;;;;;5.80;61.10;;;;;;6289994;28;19965;-69
2022/01/29 06:12:39;;;;;;;;;;;5.80;61.10;;;;;;6295422;28;19965;-69
2022/01/29 06:15:43;;;;;;;;;;;5.80;61.10;;;;;;6278502;28;19908;-71
2022/01/29 06:18:43;;;;;;;;;;;5.80;61.20;;;;;;6296098;28;19968;-69
2022/01/29 06:21:44;;;;;;;;;;;5.80;61.20;;;;;;6294684;28;19916;-69
2022/01/29 06:24:45;;;;;;;;;;;5.90;61.30;;;;;;6286944;28;19928;-68
2022/01/29 06:27:46;;;;;;;;;;;5.90;61.20;;;;;;6294992;28;20485;-69
2022/01/29 06:30:47;;;;;;;;;;;6.00;61.10;;;;;;6289041;28;19908;-69
2022/01/29 06:33:47;;;;;;;;;;;6.00;60.90;;;;;;6295225;28;20546;-69
2022/01/29 06:36:48;;;;;;;;;;;6.10;60.80;;;;;;6294931;28;20015;-68
2022/01/29 06:39:49;;;;;;;;;;;6.10;60.70;;;;;;6277246;28;20011;-69
2022/01/29 06:42:49;;;;;;;;;;;6.10;60.60;;;;;;6294440;28;19908;-69
2022/01/29 06:45:50;;;;;;;;;;;6.10;60.50;;;;;;6292493;28;19909;-69
2022/01/29 06:48:52;;;;;;;;;;;6.10;60.50;;;;;;6304769;28;19909;-69
2022/01/29 06:51:53;;;;;;;;;;;6.10;60.50;;;;;;6295051;28;20202;-70
2022/01/29 06:54:54;;;;;;;;;;;6.10;60.50;;;;;;6277724;28;19912;-70
2022/01/29 06:57:55;;;;;;;;;;;6.10;60.60;;;;;;6294654;28;20529;-69
2022/01/29 07:00:56;;;;;;;;;;;6.00;60.60;;;;;;6292696;28;19923;-69
2022/01/29 07:03:57;;;;;;;;;;;6.00;60.60;;;;;;6294256;28;20321;-71
2022/01/29 07:06:57;;;;;;;;;;;6.00;60.80;;;;;;6294268;28;19962;-69
2022/01/29 07:09:58;;;;;;;;;;;6.00;60.80;;;;;;6290220;28;19912;-69
2022/01/29 07:12:59;;;;;;;;;;;6.00;61.00;;;;;;6294510;28;20257;-69
2022/01/29 07:16:00;;;;;;;;;;;6.00;60.80;;;;;;6277096;28;19912;-68
2022/01/29 07:19:01;;;;;;;;;;;6.00;60.80;;;;;;6293596;28;20079;-69
2022/01/29 07:22:02;;;;;;;;;;;6.00;60.80;;;;;;6293211;28;19912;-70
2022/01/29 07:25:03;;;;;;;;;;;6.00;60.90;;;;;;6294187;28;19939;-69
2022/01/29 07:28:04;;;;;;;;;;;6.00;60.90;;;;;;6291818;28;20010;-69
2022/01/29 07:31:05;;;;;;;;;;;6.00;60.90;;;;;;6284336;28;20262;-69
2022/01/29 07:34:06;;;;;;;;;;;6.00;60.80;;;;;;6285086;28;19958;-69
2022/01/29 07:37:06;;;;;;;;;;;6.10;60.80;;;;;;6265400;28;19916;-69
2022/01/29 07:40:07;;;;;;;;;;;6.10;60.70;;;;;;6282298;28;20400;-69
2022/01/29 07:43:08;;;;;;;;;;;6.10;60.70;;;;;;6284236;28;20418;-70
2022/01/29 07:46:09;;;;;;;;;;;6.10;60.60;;;;;;6281526;28;19969;-69
2022/01/29 07:49:10;;;;;;;;;;;6.10;60.60;;;;;;6280422;28;19908;-69
2022/01/29 07:52:11;;;;;;;;;;;5.70;60.30;;;;;;6280083;28;20412;-70
2022/01/29 07:55:12;;;;;;;;;;;6.10;60.70;;;;;;6284125;28;19908;-70
2022/01/29 07:58:13;;;;;;;;;;;6.10;60.70;;;;;;6283484;28;19967;-70
2022/01/29 08:01:14;;;;;;;;;;;6.10;60.70;;;;;;6292369;28;20500;-70
2022/01/29 08:04:14;;;;;;;;;;;6.20;60.70;;;;;;6275972;28;19912;-70
2022/01/29 08:07:15;;;;;;;;;;;6.20;60.60;;;;;;6286107;28;19919;-69
2022/01/29 08:10:16;;;;;;;;;;;6.20;60.60;;;;;;6293032;28;20057;-70
2022/01/29 08:13:16;;;;;;;;;;;6.30;60.50;;;;;;6293151;28;20300;-71
2022/01/29 08:16:17;;;;;;;;;;;6.30;60.30;;;;;;6288829;28;20289;-70
2022/01/29 08:19:18;;;;;;;;;;;6.30;60.20;;;;;;6276170;28;20337;-70
2022/01/29 08:22:19;;;;;;;;;;;6.40;60.30;;;;;;6284153;28;19912;-70
2022/01/29 08:25:19;;;;;;;;;;;6.40;60.50;;;;;;6278324;28;20304;-70
2022/01/29 08:28:20;;;;;;;;;;;6.40;60.10;;;;;;6274962;28;19909;-69
2022/01/29 08:31:21;;;;;;;;;;;6.40;60.00;;;;;;6279663;28;19920;-70
2022/01/29 08:34:22;;;;;;;;;;;6.40;60.00;;;;;;6280813;28;19912;-69
2022/01/29 08:37:22;;;;;;;;;;;6.50;60.00;;;;;;6265023;28;19966;-68
2022/01/29 08:40:23;;;;;;;;;;;6.50;59.90;;;;;;6288214;28;19912;-70
2022/01/29 08:43:25;;;;;;;;;;;6.60;59.80;;;;;;6289366;28;20282;-69
2022/01/29 08:46:26;;;;;;;;;;;6.70;59.80;;;;;;6267804;28;19963;-69
2022/01/29 08:49:26;;;;;;;;;;;6.70;59.60;;;;;;6290988;28;19931;-70
2022/01/29 08:52:27;;;;;;;;;;;6.80;59.40;;;;;;6290641;28;20279;-70
2022/01/29 08:55:28;;;;;;;;;;;6.80;59.30;;;;;;6287160;28;19915;-70
2022/01/29 08:58:29;;;;;;;;;;;6.80;59.30;;;;;;6286422;28;20291;-71
2022/01/29 09:01:30;;;;;;;;;;;6.80;59.30;;;;;;6257450;28;19927;-70
2022/01/29 09:04:31;;;;;;;;;;;6.80;59.20;;;;;;6291383;28;19908;-70
2022/01/29 09:07:32;;;;;;;;;;;6.90;59.20;;;;;;6291375;28;19915;-70
2022/01/29 09:10:32;;;;;;;;;;;7.00;59.20;;;;;;6290938;28;19908;-70
2022/01/29 09:13:33;;;;;;;;;;;7.10;58.90;;;;;;6274478;28;19908;-72
2022/01/29 09:16:34;;;;;;;;;;;7.10;58.90;;;;;;6292113;28;19923;-71
2022/01/29 09:19:35;;;;;;;;;;;7.20;58.70;;;;;;6290426;28;20001;-71
2022/01/29 09:22:36;;;;;;;;;;;7.20;58.50;;;;;;6290462;28;20309;-69
2022/01/29 09:25:37;;;;;;;;;;;7.30;58.40;;;;;;6313655;28;20022;-69
2022/01/29 09:28:38;;;;;;;;;;;7.30;58.20;;;;;;6303461;28;19912;-70
2022/01/29 09:31:39;;;;;;;;;;;7.30;58.30;;;;;;6321686;28;19977;-70
2022/01/29 09:34:39;;;;;;;;;;;7.40;58.30;;;;;;6286823;28;19912;-71
2022/01/29 09:37:40;;;;;;;;;;;7.50;58.20;;;;;;6303322;28;19923;-70
2022/01/29 09:40:41;;;;;;;;;;;7.60;58.00;;;;;;6302702;28;20309;-71
2022/01/29 09:43:44;;;;;;;;;;;7.70;57.80;;;;;;6300632;28;20215;-69
2022/01/29 09:46:46;;;;;;;;;;;7.80;57.60;;;;;;6280421;28;19951;-69
2022/01/29 09:49:47;;;;;;;;;;;7.70;57.40;;;;;;6307746;28;19924;-70
2022/01/29 09:52:48;;;;;;;;;;;7.80;57.40;;;;;;6314890;28;20547;-70
2022/01/29 09:55:49;;;;;;;;;;;7.80;57.40;;;;;;6290725;28;19908;-70
2022/01/29 09:58:50;;;;;;;;;;;7.80;57.20;;;;;;6316568;28;20525;-70
2022/01/29 10:01:50;;;;;;;;;;;7.80;57.20;;;;;;6274755;28;20281;-70
2022/01/29 10:04:53;;;;;;;;;;;7.90;57.00;;;;;;6293881;28;19981;-71
2022/01/29 10:08:00;;;;;;;;;;;7.90;56.90;;;;;;6292364;28;19908;-71
2022/01/29 10:11:02;;;;;;;;;;;7.90;56.90;;;;;;6298025;28;19962;-71
2022/01/29 10:14:03;;;;;;;;;;;7.90;56.90;;;;;;6319891;28;19937;-72
2022/01/29 10:17:04;;;;;;;;;;;7.90;56.80;;;;;;6284717;28;19935;-68
2022/01/29 10:20:08;;;;;;;;;;;8.00;56.70;;;;;;6317180;28;19955;-70
2022/01/29 10:23:09;;;;;;;;;;;8.10;56.60;;;;;;6295395;28;19930;-68
2022/01/29 10:26:24;;;;;;;;;;;8.30;56.30;;;;;;6287435;28;19920;-70
2022/01/29 10:29:29;;;;;;;;;;;8.50;55.90;;;;;;6300994;28;19981;-70
2022/01/29 10:32:30;;;;;;;;;;;8.80;55.50;;;;;;6285248;28;20620;-70
2022/01/29 10:35:43;;;;;;;;;;;9.00;55.10;;;;;;6300882;28;19907;-71
2022/01/29 10:38:47;;;;;;;;;;;9.20;54.70;;;;;;6317987;28;19923;-70
2022/01/29 10:41:48;;;;;;;;;;;9.30;54.20;;;;;;6318591;28;20336;-71
2022/01/29 10:44:49;;;;;;;;;;;9.30;54.00;;;;;;6300798;28;19907;-70
2022/01/29 10:47:53;;;;;;;;;;;9.50;53.40;;;;;;6307922;28;19908;-70
2022/01/29 10:51:10;;;;;;;;;;;9.60;53.10;;;;;;6302428;28;20325;-70
2022/01/29 10:54:15;;;;;;;;;;;9.80;52.50;;;;;;6307524;28;20393;-70
2022/01/29 10:57:17;;;;;;;;;;;9.90;52.00;;;;;;6294570;28;19965;-72
2022/01/29 11:00:23;;;;;;;;;;;10.00;51.70;;;;;;6288982;28;20007;-70
2022/01/29 11:03:24;;;;;;;;;;;10.20;51.30;;;;;;6309772;28;20321;-70
2022/01/29 11:06:33;;;;;;;;;;;10.40;50.60;;;;;;6288895;28;19916;-70
2022/01/29 11:09:34;;;;;;;;;;;10.50;50.10;;;;;;6270363;28;19920;-70
2022/01/29 11:12:36;;;;;;;;;;;10.70;49.90;;;;;;6289295;28;20521;-72
2022/01/29 11:15:36;;;;;;;;;;;10.90;49.50;;;;;;6292368;28;19923;-72
2022/01/29 11:18:37;;;;;;;;;;;11.20;48.60;;;;;;6274242;28;19908;-71
2022/01/29 11:21:40;;;;;;;;;;;11.40;48.00;;;;;;6308093;28;19966;-71
2022/01/29 11:24:41;;;;;;;;;;;11.70;47.70;;;;;;6289152;28;20598;-70
2022/01/29 11:27:42;;;;;;;;;;;11.90;47.10;;;;;;6309354;28;19912;-70
2022/01/29 11:30:44;;;;;;;;;;;12.10;46.40;;;;;;6305354;28;19920;-72
2022/01/29 11:33:57;;;;;;;;;;;12.40;45.70;;;;;;6287202;28;19972;-71
2022/01/29 11:37:02;;;;;;;;;;;12.60;44.70;;;;;;6290028;28;19918;-70
2022/01/29 11:40:13;;;;;;;;;;;12.70;44.30;;;;;;6306843;28;20003;-72
2022/01/29 11:43:14;;;;;;;;;;;13.00;43.90;;;;;;6288152;28;19923;-71
2022/01/29 11:46:30;;;;;;;;;;;13.40;43.30;;;;;;6292351;28;19959;-70
2022/01/29 11:49:33;;;;;;;;;;;13.90;42.40;;;;;;6308812;28;19920;-71
2022/01/29 11:52:51;;;;;;;;;;;14.40;41.40;;;;;;6310627;28;19911;-72
2022/01/29 11:55:56;;;;;;;;;;;14.80;40.40;;;;;;6289542;28;20485;-72
2022/01/29 11:59:15;;;;;;;;;;;15.20;39.60;;;;;;6289524;28;19958;-71
2022/01/29 12:02:16;;;;;;;;;;;15.50;39.00;;;;;;6289767;28;19973;-72
2022/01/29 12:05:17;;;;;;;;;;;16.00;37.80;;;;;;6307905;28;19912;-71
2022/01/29 12:08:20;;;;;;;;;;;16.40;37.10;;;;;;6277593;28;19915;-71
2022/01/29 12:11:28;;;;;;;;;;;16.50;36.00;;;;;;6306203;28;19908;-71
2022/01/29 12:14:29;;;;;;;;;;;16.00;36.60;;;;;;6304595;28;19996;-72
2022/01/29 12:17:51;;;;;;;;;;;15.20;37.90;;;;;;6286989;28;19908;-70
2022/01/29 12:20:51;;;;;;;;;;;14.70;39.20;;;;;;6284971;28;19999;-71
2022/01/29 12:23:52;;;;;;;;;;;14.10;39.80;;;;;;6309791;28;19912;-73
2022/01/29 12:26:56;;;;;;;;;;;13.60;40.40;;;;;;6304638;28;20006;-71
2022/01/29 12:29:57;;;;;;;;;;;13.10;41.00;;;;;;6287758;28;20439;-71
2022/01/29 12:33:01;;;;;;;;;;;12.70;42.00;;;;;;6271184;28;19908;-71
2022/01/29 12:36:05;;;;;;;;;;;12.40;42.50;;;;;;6286649;28;19919;-71
2022/01/29 12:39:09;;;;;;;;;;;12.10;43.00;;;;;;6306912;28;19924;-71
2022/01/29 12:45:19;;;;;;;;;;;11.70;44.00;;;;;;6315059;28;19934;-72
2022/01/29 12:48:20;;;;;;;;;;;11.50;44.40;;;;;;6287370;28;19908;-72
2022/01/29 12:51:21;;;;;;;;;;;11.50;44.70;;;;;;6304170;28;20052;-70
2022/01/29 12:54:22;;;;;;;;;;;11.40;44.90;;;;;;6312364;28;20351;-71
2022/01/29 12:57:23;;;;;;;;;;;11.30;45.10;;;;;;6312324;28;20022;-70
2022/01/29 13:00:24;;;;;;;;;;;11.20;45.30;;;;;;6297548;28;20396;-70
2022/01/29 13:03:27;;;;;;;;;;;11.10;45.60;;;;;;6296011;28;19923;-71
2022/01/29 13:06:28;;;;;;;;;;;11.00;45.80;;;;;;6290675;28;19934;-71
2022/01/29 13:09:29;;;;;;;;;;;10.90;46.00;;;;;;6307590;28;19912;-70
2022/01/29 13:12:36;;;;;;;;;;;10.80;46.20;;;;;;6292264;28;20341;-71
2022/01/29 13:15:38;;;;;;;;;;;10.80;46.50;;;;;;6309049;28;19977;-70
2022/01/29 13:18:39;;;;;;;;;;;10.60;46.60;;;;;;6316341;28;20426;-73
2022/01/29 13:21:40;;;;;;;;;;;10.60;46.80;;;;;;6297950;28;19912;-71
2022/01/29 13:24:47;;;;;;;;;;;10.60;47.00;;;;;;6297935;28;19940;-71
2022/01/29 13:27:53;;;;;;;;;;;10.60;47.00;;;;;;6298138;28;19912;-71
2022/01/29 13:31:03;;;;;;;;;;;10.60;47.10;;;;;;6298083;28;19908;-71
2022/01/29 13:34:04;;;;;;;;;;;10.60;47.20;;;;;;6316106;28;19908;-71
2022/01/29 13:37:23;;;;;;;;;;;10.60;47.30;;;;;;6295029;28;19912;-72
2022/01/29 13:40:38;;;;;;;;;;;10.60;47.40;;;;;;6295717;28;19912;-70
2022/01/29 13:43:40;;;;;;;;;;;10.60;47.50;;;;;;6289841;28;20442;-72
2022/01/29 13:46:41;;;;;;;;;;;10.60;47.60;;;;;;6279982;28;19912;-72
2022/01/29 13:49:44;;;;;;;;;;;10.60;47.60;;;;;;6303453;28;19957;-71
2022/01/29 13:53:02;;;;;;;;;;;10.60;47.70;;;;;;6309067;28;20377;-70
2022/01/29 13:56:03;;;;;;;;;;;10.60;47.70;;;;;;6303825;28;19999;-71
2022/01/29 13:59:05;;;;;;;;;;;10.70;47.60;;;;;;6284054;28;20280;-72
2022/01/29 14:02:07;;;;;;;;;;;10.60;47.60;;;;;;6302867;28;19987;-71
2022/01/29 14:05:08;;;;;;;;;;;10.70;47.80;;;;;;6286573;28;19999;-71
2022/01/29 14:08:23;;;;;;;;;;;10.70;47.80;;;;;;6303005;28;19911;-71
2022/01/29 14:11:24;;;;;;;;;;;10.70;47.80;;;;;;6306289;28;20234;-72
2022/01/29 14:14:32;;;;;;;;;;;10.70;47.90;;;;;;6290269;28;19960;-72
2022/01/29 14:17:35;;;;;;;;;;;10.80;47.90;;;;;;6305504;28;20197;-71
2022/01/29 14:20:36;;;;;;;;;;;10.80;48.00;;;;;;6289118;28;19912;-70
2022/01/29 14:23:37;;;;;;;;;;;10.80;47.90;;;;;;6305003;28;19912;-71
2022/01/29 14:26:37;;;;;;;;;;;10.80;47.90;;;;;;6288055;28;19908;-71
2022/01/29 14:29:40;;;;;;;;;;;10.90;48.00;;;;;;6310070;28;19909;-71
2022/01/29 14:32:41;;;;;;;;;;;10.80;48.00;;;;;;6289317;28;19922;-71
2022/01/29 14:35:42;;;;;;;;;;;10.80;48.00;;;;;;6307905;28;19911;-72
2022/01/29 14:38:42;;;;;;;;;;;10.80;48.10;;;;;;6296385;28;19909;-71
2022/01/29 14:41:44;;;;;;;;;;;10.80;48.10;;;;;;6305238;28;19967;-71
2022/01/29 14:44:45;;;;;;;;;;;10.80;48.20;;;;;;6304244;28;19916;-71
2022/01/29 14:47:48;;;;;;;;;;;10.80;48.10;;;;;;6309654;28;19913;-71
2022/01/29 14:50:49;;;;;;;;;;;10.80;48.30;;;;;;6293726;28;20304;-71
2022/01/29 14:53:50;;;;;;;;;;;10.70;48.30;;;;;;6289034;28;19912;-70
2022/01/29 14:56:51;;;;;;;;;;;10.70;48.40;;;;;;6301144;28;19908;-70
2022/01/29 14:59:52;;;;;;;;;;;10.70;48.40;;;;;;6301447;28;19919;-71
2022/01/29 15:02:53;;;;;;;;;;;10.70;48.40;;;;;;6300900;28;19908;-71
2022/01/29 15:05:53;;;;;;;;;;;10.70;48.40;;;;;;6300941;28;19908;-71
2022/01/29 15:08:56;;;;;;;;;;;10.80;48.50;;;;;;6296176;28;19915;-71
2022/01/29 15:11:58;;;;;;;;;;;10.80;48.40;;;;;;6280938;28;20433;-72
2022/01/29 15:14:58;;;;;;;;;;;10.90;48.40;;;;;;6308608;28;19915;-71
2022/01/29 15:18:02;;;;;;;;;;;10.90;48.40;;;;;;6275291;28;20388;-72
2022/01/29 15:21:03;;;;;;;;;;;11.00;48.40;;;;;;6305586;28;19985;-70
2022/01/29 15:24:05;;;;;;;;;;;11.00;48.20;;;;;;6306637;28;19993;-71
2022/01/29 15:27:06;;;;;;;;;;;10.90;48.10;;;;;;6275022;28;19923;-72
2022/01/29 15:30:07;;;;;;;;;;;10.80;48.00;;;;;;6286487;28;19912;-72
2022/01/29 15:33:09;;;;;;;;;;;10.70;48.20;;;;;;6308465;28;19966;-72
2022/01/29 15:36:10;;;;;;;;;;;10.60;48.40;;;;;;6308640;28;19977;-70
2022/01/29 15:39:10;;;;;;;;;;;10.60;48.60;;;;;;6304760;28;19908;-71
2022/01/29 15:42:11;;;;;;;;;;;10.50;48.60;;;;;;6274380;28;19991;-70
2022/01/29 15:45:12;;;;;;;;;;;10.40;48.80;;;;;;6300728;28;20068;-69
2022/01/29 15:48:13;;;;;;;;;;;10.40;48.90;;;;;;6300711;28;19998;-70
2022/01/29 15:51:14;;;;;;;;;;;10.30;49.00;;;;;;6299617;28;20107;-72
2022/01/29 15:54:15;;;;;;;;;;;10.20;49.20;;;;;;6315090;28;19991;-70
2022/01/29 15:57:16;;;;;;;;;;;10.20;49.40;;;;;;6281752;28;20415;-71
2022/01/29 16:00:21;;;;;;;;;;;10.10;49.40;;;;;;6316103;28;19966;-69
2022/01/29 16:03:22;;;;;;;;;;;10.10;49.40;;;;;;6299632;28;20015;-71
2022/01/29 16:06:23;;;;;;;;;;;10.00;49.50;;;;;;6300274;28;19919;-70
2022/01/29 16:09:23;;;;;;;;;;;10.00;49.60;;;;;;6314893;28;20383;-70
2022/01/29 16:12:24;;;;;;;;;;;9.90;49.60;;;;;;6310922;28;19918;-69
2022/01/29 16:15:25;;;;;;;;;;;9.70;49.70;;;;;;6311879;28;19923;-71
2022/01/29 16:18:29;;;;;;;;;;;9.60;49.90;;;;;;6282718;28;19908;-72
2022/01/29 16:21:30;;;;;;;;;;;9.40;50.20;;;;;;6310457;28;19911;-70
2022/01/29 16:24:30;;;;;;;;;;;9.10;50.40;;;;;;6317093;28;19920;-69
2022/01/29 16:27:31;;;;;;;;;;;9.00;50.80;;;;;;6296917;28;19918;-71
2022/01/29 16:30:32;;;;;;;;;;;8.90;51.10;;;;;;6297156;28;19937;-70
2022/01/29 16:33:33;;;;;;;;;;;8.80;51.40;;;;;;6316635;28;19943;-69
2022/01/29 16:36:34;;;;;;;;;;;8.70;51.50;;;;;;6299682;28;20389;-70
2022/01/29 16:39:34;;;;;;;;;;;8.70;51.70;;;;;;6299462;28;20587;-70
2022/01/29 16:42:35;;;;;;;;;;;8.60;51.80;;;;;;6299309;28;19928;-70
2022/01/29 16:45:37;;;;;;;;;;;8.50;51.90;;;;;;6299561;28;19919;-71
2022/01/29 16:48:38;;;;;;;;;;;8.50;52.00;;;;;;6299330;28;19911;-71
2022/01/29 16:51:39;;;;;;;;;;;8.50;52.10;;;;;;6299313;28;20535;-71
2022/01/29 16:54:40;;;;;;;;;;;8.40;52.30;;;;;;6298478;28;19961;-71
2022/01/29 16:57:40;;;;;;;;;;;8.40;52.30;;;;;;6299217;28;20015;-72
2022/01/29 17:00:41;;;;;;;;;;;8.30;52.50;;;;;;6317456;28;19938;-71
2022/01/29 17:03:42;;;;;;;;;;;8.20;52.60;;;;;;6299318;28;19958;-70
2022/01/29 17:06:45;;;;;;;;;;;8.20;52.70;;;;;;6282468;28;20311;-70
2022/01/29 17:09:45;;;;;;;;;;;8.20;52.80;;;;;;6279423;28;19924;-71
2022/01/29 17:12:49;;;;;;;;;;;8.10;52.90;;;;;;6298594;28;20319;-70
2022/01/29 17:15:51;;;;;;;;;;;8.10;53.00;;;;;;6298524;28;19967;-71
2022/01/29 17:18:57;;;;;;;;;;;8.10;53.10;;;;;;6279962;28;19908;-69
2022/01/29 17:21:58;;;;;;;;;;;8.00;53.10;;;;;;6292369;28;20018;-69
2022/01/29 17:24:59;;;;;;;;;;;8.00;53.20;;;;;;6296625;28;19927;-70
2022/01/29 17:27:59;;;;;;;;;;;8.00;53.30;;;;;;6275436;28;20482;-70
2022/01/29 17:31:00;;;;;;;;;;;7.90;53.40;;;;;;6299088;28;19976;-71
2022/01/29 17:34:01;;;;;;;;;;;7.90;53.50;;;;;;6282251;28;20347;-69
2022/01/29 17:37:01;;;;;;;;;;;7.80;53.80;;;;;;6309504;28;19908;-69
2022/01/29 17:40:02;;;;;;;;;;;7.70;54.00;;;;;;6293113;28;19994;-70
2022/01/29 17:43:03;;;;;;;;;;;7.60;54.10;;;;;;6316505;28;20319;-70
2022/01/29 17:46:04;;;;;;;;;;;7.50;54.30;;;;;;6300264;28;19916;-70
2022/01/29 17:49:05;;;;;;;;;;;7.50;54.60;;;;;;6321614;28;19932;-69
2022/01/29 17:52:06;;;;;;;;;;;7.40;54.80;;;;;;6315769;28;19934;-70
2022/01/29 17:55:08;;;;;;;;;;;7.40;55.00;;;;;;6310219;28;19955;-69
2022/01/29 17:58:10;;;;;;;;;;;7.40;55.10;;;;;;6308766;28;20411;-70
2022/01/29 18:01:11;;;;;;;;;;;7.30;55.00;;;;;;6288083;28;19920;-71
2022/01/29 18:05:00;;;;;;;38.58;13.95;;;7.30;54.70;;;;;;6331978;27;20858;-70
2022/01/29 18:08:03;;;;;;;50.92;18.30;;;7.20;55.30;;;;;;6290596;28;20035;-70
2022/01/29 18:11:04;;;;;;;47.50;17.88;;;7.10;55.40;;;;;;6263167;28;20668;-70